Latest Weather Observations for Dalby

IDQ60801

Issued at 1:32 pm EST Thursday 17 August 2017 (issued every 30 minutes, with the page automatically refreshed every 10 minutes)

About weather observations | Map of weather stations | Latest weather observations for QLD | Other Formats
Station Details ID: 041522 Name: DALBY AIRPORT Lat: -27.16 Lon: 151.26 Height: 343.9 m
Data from the previous 72 hours. | See also: Recent months at Dalby
Date/Time
EST
Temp
°C
App
Temp
°C
Dew
Point
°C
Rel
Hum
%
Delta-T
°C
Wind Press
QNH
hPa
Press
MSL
hPa
Rain since
9am
mm
Dir  Spd
km/h
Gust
km/h
Spd
kts
Gust
kts
17/01:30pm 29.5 23.2 3.5 19 13.4 W 26 41 14 22 1010.8 1010.5 0.0
17/01:00pm 29.8 21.8 3.7 19 13.5 W 35 46 19 25 1011.3 1011.1 0.0
17/12:30pm 28.8 22.2 4.3 21 12.7 W 28 43 15 23 1011.8 1011.5 0.0
17/12:00pm 27.4 22.1 6.8 27 11.1 WNW 24 35 13 19 1012.3 1012.0 0.0
17/11:30am 27.1 21.5 7.0 28 10.8 WNW 26 37 14 20 1012.8 1012.5 0.0
17/11:00am 25.9 21.8 8.0 32 9.7 NW 19 30 10 16 1013.3 1013.0 0.0
17/10:30am 24.2 19.3 8.6 37 8.5 NW 24 30 13 16 1014.0 1013.8 0.0
17/10:00am 23.1 18.9 11.2 47 6.7 NW 24 30 13 16 1014.3 1014.1 0.0
17/09:30am 21.7 16.9 11.7 53 5.7 NW 28 35 15 19 1014.5 1014.3 0.0
17/09:00am 20.5 15.0 12.0 58 4.8 NW 32 37 17 20 1014.5 1014.3 0.0
17/08:30am 19.8 15.1 12.1 61 4.4 NNW 28 35 15 19 1014.3 1014.1 0.0
17/08:00am 18.8 15.1 11.6 63 4.0 NNW 22 28 12 15 1014.3 1014.1 0.0
17/07:30am 16.6 13.2 10.7 68 3.2 N 19 22 10 12 1014.1 1013.9 0.0
17/07:00am 13.6 8.9 9.3 75 2.2 N 24 26 13 14 1013.6 1013.4 0.0
17/06:30am 10.7 6.2 6.3 74 2.1 NNW 19 20 10 11 1013.8 1013.6 0.0
17/06:00am 10.9 7.2 6.5 74 2.1 NW 15 17 8 9 1013.4 1013.1 0.0
17/05:30am 10.9 7.5 5.7 70 2.4 NW 13 13 7 7 1013.1 1012.8 0.0
17/05:00am 11.4 7.9 5.5 67 2.8 NW 13 15 7 8 1012.8 1012.5 0.0
17/04:30am 12.7 10.1 6.3 65 3.1 NW 9 13 5 7 1012.6 1012.3 0.0
17/04:00am 12.6 9.2 6.0 64 3.2 NW 13 13 7 7 1012.1 1011.8 0.0
17/03:30am 13.8 10.2 6.7 62 3.5 NW 15 17 8 9 1012.0 1011.7 0.0
17/03:00am 14.1 10.9 6.9 62 3.6 W 13 17 7 9 1012.2 1011.9 0.0
17/02:30am 14.8 11.1 6.4 57 4.1 WNW 15 19 8 10 1012.3 1012.0 0.0
17/02:00am 17.1 14.1 7.5 53 4.9 NNW 13 19 7 10 1012.4 1012.1 0.0
17/01:30am 17.8 13.6 7.5 51 5.3 N 19 22 10 12 1012.2 1011.9 0.0
17/01:00am 18.2 13.8 7.3 49 5.6 N 20 24 11 13 1012.3 1012.0 0.0
17/12:30am 18.4 14.1 7.2 48 5.7 N 19 24 10 13 1012.5 1012.2 0.0
17/12:00am 18.2 13.9 7.0 48 5.7 N 19 24 10 13 1012.6 1012.3 0.0
 
Date/Time
EST
Temp
°C
App
Temp
°C
Dew
Point
°C
Rel
Hum
%
Delta-T
°C
Wind Press
QNH
hPa
Press
MSL
hPa
Rain since
9am
mm
Dir  Spd
km/h
Gust
km/h
Spd
kts
Gust
kts
16/11:30pm 18.6 14.6 6.8 46 6.0 NNW 17 20 9 11 1012.7 1012.4 0.0
16/11:00pm 18.8 14.8 6.6 45 6.2 NNW 17 20 9 11 1012.7 1012.4 0.0
16/10:30pm 19.1 14.7 6.6 44 6.4 N 19 20 10 11 1012.8 1012.5 0.0
16/10:00pm 18.4 14.6 5.9 44 6.2 N 15 19 8 10 1012.9 1012.6 0.0
16/09:30pm 18.9 15.1 5.7 42 6.6 N 15 19 8 10 1012.9 1012.6 0.0
16/09:00pm 19.9 15.4 5.9 40 7.1 NNW 19 20 10 11 1012.6 1012.3 0.0
16/08:30pm 20.3 16.4 5.5 38 7.4 NNW 15 17 8 9 1012.4 1012.1 0.0
16/08:00pm 21.6 17.1 5.9 36 8.0 N 19 22 10 12 1012.2 1011.9 0.0
16/07:30pm 21.6 16.7 5.1 34 8.3 N 20 24 11 13 1011.6 1011.4 0.0
16/07:00pm 21.4 16.9 4.0 32 8.6 N 17 19 9 10 1011.3 1011.1 0.0
16/06:30pm 23.3 18.4 4.3 29 9.5 NNW 19 22 10 12 1011.0 1010.8 0.0
16/06:00pm 25.4 20.0 4.5 26 10.7 NNW 22 26 12 14 1010.7 1010.4 0.0
16/05:30pm 26.8 21.0 4.6 24 11.4 NW 24 28 13 15 1010.3 1010.0 0.0
16/05:00pm 28.3 22.0 3.9 21 12.5 NW 26 33 14 18 1010.1 1009.8 0.0
16/04:30pm 29.3 22.7 4.0 20 13.1 NW 28 39 15 21 1010.0 1009.7 0.0
16/04:02pm 29.9 21.8 3.0 18 13.7 NW 35 54 19 29 1009.9 1009.6 0.0
16/04:00pm 29.8 21.4 3.7 19 13.5 NW 37 54 20 29 1009.9 1009.6 0.0
16/03:30pm 30.5 22.9 2.7 17 14.2 NW 32 43 17 23 1010.0 1009.7 0.0
16/03:00pm 30.9 23.2 2.2 16 14.6 WNW 32 43 17 23 1010.1 1009.8 0.0
16/02:30pm 30.4 22.6 2.6 17 14.1 WNW 33 43 18 23 1010.1 1009.8 0.0
16/02:00pm 30.1 22.4 2.4 17 14.0 WNW 32 50 17 27 1010.4 1010.1 0.0
16/01:49pm 30.9 23.3 3.0 17 14.3 NW 32 52 17 28 1010.4 1010.1 0.0
16/01:30pm 29.8 22.3 4.4 20 13.3 NW 33 48 18 26 1010.7 1010.4 0.0
16/01:04pm 29.9 21.7 4.5 20 13.3 NW 37 56 20 30 1011.2 1011.0 0.0
16/01:00pm 29.5 20.8 4.2 20 13.2 NW 39 56 21 30 1011.2 1011.0 0.0
16/12:38pm 29.5 20.8 4.2 20 13.2 NW 39 61 21 33 1011.6 1011.4 0.0
16/12:30pm 29.9 21.8 5.2 21 13.1 NW 37 48 20 26 1011.9 1011.6 0.0
16/12:00pm 28.9 20.1 5.7 23 12.3 NW 41 52 22 28 1012.5 1012.2 0.0
16/11:30am 28.1 19.8 6.2 25 11.7 NNW 39 50 21 27 1013.1 1012.8 0.0
16/11:00am 26.7 17.9 5.6 26 11.1 NNW 41 52 22 28 1013.8 1013.6 0.0
16/10:30am 25.7 17.3 5.8 28 10.4 NNW 39 50 21 27 1014.4 1014.2 0.0
16/10:00am 24.8 15.6 5.6 29 9.9 NNW 43 52 23 28 1014.6 1014.4 0.0
16/09:30am 24.3 15.5 5.6 30 9.7 NNW 41 54 22 29 1015.1 1014.8 0.0
16/09:00am 23.1 15.0 6.8 35 8.5 NNW 39 48 21 26 1015.4 1015.1 0.0
16/08:30am 21.3 13.5 6.8 39 7.5 NNW 37 48 20 26 1015.3 1015.0 0.0
16/08:17am 20.8 13.8 6.7 40 7.3 NNW 33 52 18 28 1015.3 1015.0 0.0
16/08:00am 19.8 12.8 6.2 41 6.9 N 32 41 17 22 1015.3 1015.0 0.0
16/07:30am 17.8 12.1 4.7 42 6.4 N 24 30 13 16 1015.1 1014.8 0.0
16/07:00am 15.9 10.8 4.0 45 5.6 NNW 20 26 11 14 1015.0 1014.7 0.0
16/06:30am 15.5 10.3 3.3 44 5.7 NNW 20 24 11 13 1014.9 1014.6 0.0
16/06:00am 15.5 10.4 3.3 44 5.7 NNW 19 22 10 12 1014.5 1014.3 0.0
16/05:30am 15.6 10.6 3.4 44 5.7 N 19 20 10 11 1014.2 1014.0 0.0
16/05:00am 15.2 10.5 3.4 45 5.5 N 17 20 9 11 1013.8 1013.6 0.0
16/04:30am 16.1 11.0 3.2 42 6.0 N 19 22 10 12 1013.5 1013.3 0.0
16/04:00am 17.1 11.1 3.4 40 6.5 N 24 28 13 15 1013.5 1013.3 0.0
16/03:30am 15.7 10.7 3.5 44 5.7 N 19 22 10 12 1013.8 1013.6 0.0
16/03:00am 15.5 10.5 3.6 45 5.6 N 19 20 10 11 1014.1 1013.9 0.0
16/02:30am 16.7 11.5 3.4 41 6.2 N 20 24 11 13 1013.9 1013.7 0.0
16/02:00am 17.5 11.1 3.4 39 6.7 N 26 33 14 18 1013.8 1013.6 0.0
16/01:30am 17.7 11.7 3.6 39 6.7 N 24 28 13 15 1014.2 1014.0 0.0
16/01:00am 17.8 11.8 3.3 38 6.8 N 24 32 13 17 1014.5 1014.3 0.0
16/12:30am 17.9 12.3 3.4 38 6.9 N 22 30 12 16 1014.7 1014.5 0.0
16/12:00am 16.1 10.9 2.5 40 6.2 NNE 19 22 10 12 1015.0 1014.7 0.0
 
Date/Time
EST
Temp
°C
App
Temp
°C
Dew
Point
°C
Rel
Hum
%
Delta-T
°C
Wind Press
QNH
hPa
Press
MSL
hPa
Rain since
9am
mm
Dir  Spd
km/h
Gust
km/h
Spd
kts
Gust
kts
15/11:30pm 14.9 9.5 1.1 39 6.1 NNE 19 20 10 11 1015.2 1014.9 0.0
15/11:00pm 15.7 10.5 0.3 35 6.7 N 17 19 9 10 1015.2 1014.9 0.0
15/10:30pm 15.7 10.2 0.7 36 6.6 NNE 19 20 10 11 1015.2 1014.9 0.0
15/10:00pm 14.0 8.7 -0.8 36 6.2 NNE 17 19 9 10 1015.2 1014.9 0.0
15/09:30pm 14.1 9.4 -1.9 33 6.6 NNE 13 17 7 9 1015.3 1015.0 0.0
15/09:00pm 13.9 9.1 -2.5 32 6.6 NNE 13 15 7 8 1015.2 1014.9 0.0
15/08:30pm 14.1 9.6 -3.6 29 7.0 ENE 11 17 6 9 1014.9 1014.6 0.0
15/08:00pm 16.1 12.6 -2.9 27 7.8 NNE 6 7 3 4 1014.7 1014.5 0.0
15/07:30pm 16.6 10.7 -2.5 27 7.9 NNE 19 22 10 12 1014.6 1014.4 0.0
15/07:00pm 17.8 13.7 -3.0 24 8.6 N 9 11 5 6 1014.5 1014.3 0.0
15/06:30pm 19.0 15.5 -3.2 22 9.3 ENE 6 7 3 4 1014.4 1014.2 0.0
15/06:00pm 22.7 20.3 -2.8 18 11.1 CALM 0 0 0 0 1014.2 1014.0 0.0
15/05:30pm 25.0 21.8 -3.4 15 12.5 E 4 7 2 4 1014.2 1014.0 0.0
15/05:00pm 27.7 24.9 -3.2 13 13.9 NNW 2 7 1 4 1014.2 1014.0 0.0
15/04:30pm 27.5 23.9 -3.3 13 13.8 NE 6 9 3 5 1014.2 1014.0 0.0
15/04:00pm 28.6 25.5 -2.5 13 14.3 NW 4 7 2 4 1014.3 1014.1 0.0
15/03:30pm 27.6 23.9 -3.3 13 13.9 SSE 7 13 4 7 1014.4 1014.2 0.0
15/03:00pm 27.7 24.2 -3.2 13 13.9 SSE 6 17 3 9 1014.4 1014.2 0.0
15/02:30pm 27.9 23.4 -3.0 13 14.0 E 11 15 6 8 1014.5 1014.3 0.0
15/02:00pm 27.4 24.0 -2.4 14 13.6 SSE 6 17 3 9 1015.0 1014.7 0.0
15/01:30pm 27.1 23.4 -2.7 14 13.5 SSE 7 15 4 8 1015.3 1015.0 0.0
15/01:00pm 27.5 23.5 -2.3 14 13.6 ESE 9 15 5 8 1015.9 1015.6 0.0
15/12:30pm 26.3 23.1 -3.3 14 13.2 WNW 4 7 2 4 1016.5 1016.3 0.0
15/12:00pm 25.6 21.8 -3.8 14 12.9 SSE 7 11 4 6 1017.2 1017.0 0.0
15/11:30am 26.1 22.3 -3.5 14 13.1 ENE 7 13 4 7 1018.0 1017.7 0.0
15/11:00am 24.9 21.3 -3.5 15 12.4 E 6 15 3 8 1018.7 1018.5 0.0
15/10:30am 23.7 19.6 -2.8 17 11.6 SE 9 17 5 9 1019.4 1019.2 0.0
15/10:00am 22.9 18.6 -1.9 19 11.0 ESE 11 15 6 8 1019.4 1019.2 0.0
15/09:30am 21.7 17.7 -2.2 20 10.4 ESE 9 13 5 7 1019.9 1019.7 0.0
15/09:00am 20.5 16.6 -1.3 23 9.6 ENE 9 13 5 7 1019.9 1019.7 0.0
15/08:30am 17.8 14.0 -0.5 29 8.0 ENE 9 13 5 7 1019.9 1019.7 0.0
15/08:00am 14.9 11.5 -0.8 34 6.6 ENE 7 11 4 6 1019.8 1019.6 0.0
15/07:30am 11.4 8.2 -0.7 43 5.0 SE 6 7 3 4 1020.0 1019.8 0.0
15/07:00am 7.6 4.7 -1.4 53 3.5 SSE 4 7 2 4 1019.8 1019.6 0.0
15/06:30am 7.2 3.3 -1.5 54 3.3 ENE 9 11 5 6 1019.3 1019.1 0.0
15/06:00am 6.5 1.8 -1.9 55 3.2 ENE 13 17 7 9 1019.1 1018.9 0.0
15/05:30am 6.3 1.1 -3.1 51 3.4 ENE 15 17 8 9 1018.7 1018.5 0.0
15/05:00am 5.9 2.4 -2.7 54 3.1 E 6 6 3 3 1018.6 1018.4 0.0
15/04:30am 6.4 2.2 -3.8 48 3.7 ENE 9 13 5 7 1018.4 1018.1 0.0
15/04:00am 6.2 1.3 -3.4 50 3.5 ENE 13 13 7 7 1018.2 1017.9 0.0
15/03:30am 5.5 1.7 -3.6 52 3.3 ENE 7 9 4 5 1018.5 1018.3 0.0
15/03:00am 6.3 2.7 -3.9 48 3.6 E 6 7 3 4 1018.5 1018.3 0.0
15/02:30am 5.8 1.6 -4.3 48 3.6 E 9 11 5 6 1018.5 1018.3 0.0
15/02:00am 6.1 1.9 -4.3 47 3.7 E 9 9 5 5 1018.7 1018.5 0.0
15/01:30am 6.3 3.1 -3.9 48 3.7 ESE 4 9 2 5 1018.8 1018.6 0.0
15/01:00am 7.7 5.2 -4.1 43 4.3 CALM 0 0 0 0 1019.0 1018.8 0.0
15/12:30am 7.5 2.8 -4.6 42 4.3 ENE 11 15 6 8 1019.1 1018.9 0.0
15/12:00am 8.3 3.6 -5.2 38 4.8 ENE 11 13 6 7 1019.2 1019.0 0.0
 
Date/Time
EST
Temp
°C
App
Temp
°C
Dew
Point
°C
Rel
Hum
%
Delta-T
°C
Wind Press
QNH
hPa
Press
MSL
hPa
Rain since
9am
mm
Dir  Spd
km/h
Gust
km/h
Spd
kts
Gust
kts
14/11:30pm 7.2 3.3 -4.8 42 4.2 E 7 9 4 5 1019.3 1019.1 0.0
14/11:00pm 8.1 3.3 -6.4 35 5.0 ENE 11 15 6 8 1019.2 1019.0 0.0
14/10:30pm 8.6 4.1 -6.7 33 5.3 NE 9 13 5 7 1019.3 1019.1 0.0
14/10:00pm 8.9 4.9 -8.1 29 5.7 ENE 6 7 3 4 1019.3 1019.1 0.0
14/09:30pm 10.0 7.2 -7.2 29 6.0 CALM 0 0 0 0 1019.3 1019.1 0.0
14/09:00pm 11.9 8.7 -7.5 25 6.8 SSW 2 6 1 3 1019.2 1019.0 0.0
14/08:30pm 13.6 9.9 -4.5 28 7.0 SSW 6 7 3 4 1018.9 1018.7 0.0
14/08:00pm 15.6 11.8 -5.4 23 8.1 SSW 6 7 3 4 1018.4 1018.1 0.0
14/07:30pm 16.6 12.6 -5.2 22 8.5 S 7 9 4 5 1018.5 1018.3 0.0
14/07:00pm 16.6 12.1 -6.4 20 8.8 SW 9 9 5 5 1018.4 1018.1 0.0
14/06:30pm 18.0 13.7 -5.3 20 9.2 SW 9 9 5 5 1018.1 1017.8 0.0
14/06:00pm 19.1 14.6 -7.3 16 10.1 WSW 9 11 5 6 1017.6 1017.4 0.0
14/05:30pm 21.7 16.4 -6.9 14 11.4 WSW 13 15 7 8 1017.5 1017.3 0.0
14/05:00pm 24.4 18.8 -6.8 12 12.8 SW 15 19 8 10 1017.0 1016.8 0.0
14/04:30pm 25.0 18.5 -7.5 11 13.2 WSW 19 24 10 13 1016.8 1016.6 0.0
14/04:00pm 25.4 19.0 -7.2 11 13.4 WSW 19 26 10 14 1016.8 1016.6 0.0
14/03:30pm 25.6 19.1 -8.2 10 13.7 SW 19 33 10 18 1016.7 1016.5 0.0
14/03:00pm 25.7 18.2 -8.2 10 13.7 WSW 24 35 13 19 1016.8 1016.6 0.0
14/02:30pm 25.5 18.1 -7.1 11 13.4 SW 24 33 13 18 1017.1 1016.9 0.0
14/02:00pm 25.9 18.9 -6.8 11 13.6 WSW 22 35 12 19 1017.1 1016.9 0.0

Other Formats:

Comma delimited format used in spreadsheet applications
http://www.bom.gov.au/fwo/IDQ60801/IDQ60801.94542.axf

JavaScript Object Notation format (JSON) in row-major order
http://www.bom.gov.au/fwo/IDQ60801/IDQ60801.94542.json